• Join FlightAware (Why Join?)
  • Login
  • US Flag 
11:20PM EST


 

Airport Tracker/Info


-or-


 

Live Flight TrackerFlight Track Log ✈ EJA831 ✈ 08-Dec-2013 ✈ KAIK - KRYY

Flight Track Log - Related Links

Times and Time Zones

All times are in EST time to prevent confusion due to time zone crossing. See the EJA831 flight status page for this flight to view local times or setup timezone preferences in your user account.

Time Position Orientation Groundspeed Altitude Reporting Facility
EST Latitude Longitude Course Direction KTS MPH feet Rate Location/Type
04:19PM 33.6939 -81.7617 257° West 232 267 6,300  Level Atlanta Center
04:20PM 33.6808 -81.8444 259° West 239 275 9,500 5,220 Climbing Atlanta Center
04:22PM 33.6525 -82.0175 259° West 263 303 22,000 3,120 Climbing Atlanta Center
04:23PM 33.6392 -82.1075 260° West 268 308 18,900 -120 Descending Atlanta Center
04:24PM 33.7342 -82.3154 257° West  Level Estimated
04:24PM 33.6239 -82.1928 258° West 268 308 21,800  Level Atlanta Center
04:25PM 33.6125 -82.2728 260° West 285 328 22,000 60 Climbing Atlanta Center
04:26PM 33.5850 -82.3956 255° West 331 381 22,000  Level Atlanta Center
04:27PM 33.5256 -82.4814 230° Southwest 331 381 22,000  Level Atlanta Center
04:28PM 33.4661 -82.5747 233° Southwest 344 396 22,000  Level Atlanta Center
04:29PM 33.4089 -82.6650 233° Southwest 344 396 22,000  Level Atlanta Center
04:30PM 33.3575 -82.7581 237° Southwest 350 403 22,000  Level Atlanta Center
04:31PM 33.3525 -82.8725 267° West 339 390 22,000 -180 Level Atlanta Center
04:32PM 33.3556 -82.9894 272° West 354 407 21,700 -1,080 Descending Atlanta Center
04:33PM 33.3606 -83.1036 273° West 354 407 19,900 -1,920 Descending Atlanta Center
04:34PM 33.3678 -83.2156 274° West 349 402 17,900 -1,800 Descending Atlanta Center
04:35PM 33.3683 -83.3275 270° West 342 394 16,300 -1,740 Descending Atlanta Center
04:36PM 33.3775 -83.4344 276° West 331 381 14,500 -1,620 Descending Atlanta Center
04:37PM 33.3800 -83.5314 272° West 331 381 13,100 -1,500 Descending Atlanta Center
04:38PM 33.3803 -83.6258 270° West 315 362 11,600 -1,080 Descending Atlanta Center
04:39PM 33.4286 -83.7003 308° West 273 314 11,000 -960 Descending Atlanta Center
04:40PM 33.4956 -83.7547 326° Northwest 269 310 9,700 -1,500 Descending Atlanta Center
04:41PM 33.5686 -83.7944 336° Northwest 284 327 8,100 -1,620 Descending Atlanta Center
04:42PM 33.6458 -83.8217 344° North 284 327 6,500 -1,080 Descending Atlanta Center
04:43PM 33.7272 -83.8389 350° North 289 333 6,000 -300 Descending Atlanta Center
04:44PM 33.8150 -83.8539 352° North 294 338 6,000  Level Atlanta Center
04:45PM 33.9000 -83.8833 344° North 276 318 6,100 -360 Climbing Atlanta TRACON
04:46PM 33.9667 -83.9167 337° Northwest 272 313 5,300 -540 Descending Atlanta TRACON
04:47PM 34.0000 -83.9667 309° West 204 235 5,100 -120 Descending Atlanta TRACON
04:48PM 34.0167 -84.0167 292° West 204 235 5,100  Level Atlanta TRACON
04:49PM 34.0167 -84.0833 270° West 197 227 5,100 -540 Level Atlanta TRACON
04:50PM 34.0167 -84.1500 270° West 194 223 4,100 -540 Descending Atlanta TRACON
04:51PM 34.0167 -84.2167 270° West 181 208 4,100 -60 Level Atlanta TRACON
04:52PM 34.0167 -84.2833 270° West 185 213 4,000 -60 Descending Atlanta TRACON
04:53PM 34.0167 -84.3500 270° West 189 217 4,000 -60 Level Atlanta TRACON
04:54PM 34.0167 -84.4000 270° West 178 205 3,900 -360 Descending Atlanta TRACON
04:55PM 34.0167 -84.4500 270° West 113 130 3,300 -660 Descending Atlanta TRACON
04:56PM 34.0167 -84.4833 270° West 134 154 2,600 -720 Descending Atlanta TRACON
04:57PM 34.0167 -84.5333 270° West 139 160 1,900 -720 Descending Atlanta TRACON
04:59PM 34.0000 -84.5833 248° West  Level FlightAware Approximate